Portada
METAR-TAF:

METAR-TAF

Aeropuertos :

Aeropuerto de Bilbao

Bilbao, España

latitud: 43-18N, longitud: 002-56W, altitud: 42 m

Observación

El informe se hizo hace 40 minutos, a las 18:00 UTC
Viento 10 kt del sur-sureste, variando entre este y sur-suroeste
Temperatura 27°C
Humedad 51%
Presión 1018 hPa
Visibilidad 10 km o más
sin nubes por debajo de 1500 m y sin presencia de cumulonimbus.

METAR: LEBB 191800Z 16010KT 080V210 CAVOK 27/16 Q1018 NOSIG

Hora: 20:40 (18:40 UTC)

Pronóstico

El informe se hizo hace 1 hora y 40 minutos, a las 17:00 UTC
Pronóstico válido del 19 a las 18 UTC al 20 a las 18 UTC
Viento 9 kt del sur
Visibilidad 10 km o más
sin nubes por debajo de 1500 m y sin presencia de cumulonimbus.
Probabilidad 40% :
Temporalmente
del 19 a las 18 UTC al 20 a las 08 UTC
Viento 15 kt del sur con ráfagas de 30 kt

TAF: LEBB 191700Z 1918/2018 18009KT CAVOK TX28/2015Z TN19/2006Z PROB40 TEMPO 1918/2008 18015G30KT

Observaciones y pronósticos meteorológicos de más de 4000 aeropuertos (mensajes METAR y TAF).

Los puntos amarillos y rojos representan las estaciones disponibles.

Ponga el ratón en el punto deseado para ver el nombre de la estación.

Haga clic para ver las observaciones y los pronósticos meteorológicos.

Para cambiar el mapa : haga clic en los botones verdes con una cruz de color negro para hacer un zoom, en el botón verde con un guión para alejar o en las flechas verdes para mapas adyacentes.


METAR-TAF: